Архив погоды в Александровск-Сахалинском

Метеограмма Александровск-Сахалинский
Четверг, 19 Сентября
Время местн. Темп Ветер Видим Явления Облачность нижн/средн/верх Атм. давл. Влжн Точка росы ВНГО R Сост. почвы Tg s
Напр Скр Прв ур.ст ур.м изм
13:00 +10.1° Ю-В 2 4 20 км небо без изменений {ливневые осадки} преимущественно облачно 746 749 +0.2 86% +7.9° 1 км - - - -
10:00 +8.1° Ю,Ю-В 2 3 4 км умеренный или сильный ливневый дождь облачно 746 749 -0.3 99% +7.9° 600 м - - - -
07:00 +7.9° С 2 3 4 км слабый ливневый дождь облачно 746 749 +0.1 93% +6.8° 1 км 7 Влажная (без луж) - -
04:00 +10.5° С-В 3 10 более 50 км - облачно 746 749 -3.2 51% +0.9° 1 км - - - -
01:00 +10.9° В,Ю-В 3 6 50 км - облачно 749 752 -1.7 55% +2.3° 1 км - - - -
Среда, 18 Сентября
Время местн. Темп Ветер Видим Явления Облачность нижн/средн/верх Атм. давл. Влжн Точка росы ВНГО R Сост. почвы Tg s
Напр Скр Прв ур.ст ур.м изм
22:00 +11.5° Ю-В 2 4 50 км - облачно 751 754 -1.1 68% +5.8° 1 км - - - -
19:00 +12.4° В,Ю-В 2 3 50 км - облачно 752 755 -1.1 66% +6.2° 1 км 0 - - -
16:00 +16.5° З 2 4 50 км - облачно 753 756 -1.2 49% +5.9° 1 км - - - -
13:00 +17.3° З,Ю-З 4 7 50 км - облачно с прояснениями 755 757 -1.9 45% +5.4° более 2.5 км - - - -
10:00 +14.7° Ю-В 3 5 50 км - облачно 756 759 -0.3 58% +6.6° более 2.5 км - - - -
07:00 +5.1° Ю-В 4 7 50 км - ясно 757 760 -0.4 93% +4.1° более 2.5 км 0 Влажная (без луж) - -
04:00 +4.6° Ю-В 4 6 50 км - ясно 757 760 -0.4 95% +3.8° более 2.5 км - - - -
01:00 +5.2° Ю-В 3 6 более 50 км - ясно 757 760 +0.3 95% +4.4° более 2.5 км - - - -
Вторник, 17 Сентября
Время местн. Темп Ветер Видим Явления Облачность нижн/средн/верх Атм. давл. Влжн Точка росы ВНГО R Сост. почвы Tg s
Напр Скр Прв ур.ст ур.м изм
22:00 +6° Ю-В 4 5 50 км - ясно 757 760 +0.5 95% +5.2° более 2.5 км - - - -
19:00 +12.6° С,С-З 2 5 50 км - ясно 757 759 +0.8 60% +5.1° более 2.5 км 1 - - -
16:00 +14.6° С-З 3 6 50 км небо без изменений {ливневые осадки} переменная облачность 756 759 +0.2 54% +5.4° 1 км - - - -
13:00 +14.3° С-З 4 8 50 км небо без изменений {ливневые осадки} переменная облачность 756 758 +0.3 62% +7.1° 1 км - - - -
10:00 +13.6° С 4 7 50 км - облачно с прояснениями 755 758 +0.8 82% +10.5° 1 км - - - -
07:00 +9.4° Ю-В 2 3 50 км - облачно с прояснениями 755 757 +1 93% +8.4° 1 км 0 Влажная (без луж) - -
04:00 +14.5° С-З 4 9 20 км - облачно с прояснениями 754 756 +0.1 58% +6.4° 1 км - - - -
01:00 +12° Ю-В 1 4 20 км - переменная облачность 753 756 +0.2 99% +11.8° 1 км - - - -
Понедельник, 16 Сентября
Время местн. Темп Ветер Видим Явления Облачность нижн/средн/верх Атм. давл. Влжн Точка росы ВНГО R Сост. почвы Tg s
Напр Скр Прв ур.ст ур.м изм
22:00 +13.6° Ю-В 2 3 20 км - преимущественно облачно 753 756 +0.5 89% +11.8° 1 км - - - -
19:00 +15.7° Ю,Ю-В 3 14 20 км - облачно 753 756 0 78% +11.8° 1 км 0 - - -
16:00 +18.8° Ю,Ю-З 6 16 20 км - облачно 753 756 -0.3 53% +9° 1 км - - - -
13:00 +21° Ю 6 12 50 км - преимущественно облачно 753 756 -1.1 45% +8.6° более 2.5 км - - - -
10:00 +19.7° Ю 6 11 50 км - преимущественно облачно 754 757 -0.6 45% +7.3° более 2.5 км - - - -